PWSweather.com
Personal Weather Stations
Station Observations
KCOBOOMER
Belmont, Pueblo, CO 81001

BelmontPueblo, CO 81001

Lat: 38.2977486, Lon: -104.5754318

Elevation: 4795

Station Type: Davis Vantage Pro 2

http://www.puebloweather.net

Latest ConditionsUpdated 7:20:04 AM MDT Tuesday, Jul 22, 2014
Currently Today's Max Today's Min Today's Average
Temperature 64.9°F18.3°C 71.9°F22.2°C 61.8°F16.6°C 66.1°F18.9°C
Dew Point 53.7°F12.1°C 54.3°F12.4°C 51.7°F10.9°C 53.2°F11.8°C
Winds Calm Calm 16.0 mph W25.7 kmh W - 2.2 mph 3.5 kmh
Wind Gusts -- -- - -
Humidity 67% 72% 49% 64%
Pressure 29.89 in1012.2 mb 29.89 in1012.2 mb 29.80 in1009.1 mb -
Hour Temp Dew Point Humidity Winds Wind Gusts Pressure Precip Precip Rate Daily Precip Total
07:20 AM 64.9°F18.3°C 53.7°F12.1°C 67% Calm Calm -- 29.89 in1012.2 mb 0.00 in0.0 mm 0.00 in/hr0.0 mm/hr 0.00 in0.0 mm
07:15 AM 64.5°F18.1°C 53.3°F11.8°C 67% Calm Calm -- 29.89 in1012.2 mb 0.00 in0.0 mm 0.00 in/hr0.0 mm/hr 0.00 in0.0 mm
07:10 AM 64.2°F17.9°C 53.4°F11.9°C 68% Calm Calm -- 29.89 in1012.2 mb 0.00 in0.0 mm 0.00 in/hr0.0 mm/hr 0.00 in0.0 mm
07:05 AM 63.9°F17.7°C 53.1°F11.7°C 68% 2.0 mph N3.2 kmh N -- 29.89 in1012.2 mb 0.00 in0.0 mm 0.00 in/hr0.0 mm/hr 0.00 in0.0 mm
07:00 AM 63.6°F17.6°C 53.3°F11.8°C 69% Calm Calm -- 29.89 in1012.2 mb 0.00 in0.0 mm 0.00 in/hr0.0 mm/hr 0.00 in0.0 mm
06:55 AM 63.3°F17.4°C 53.0°F11.7°C 69% Calm Calm -- 29.89 in1012.2 mb 0.00 in0.0 mm 0.00 in/hr0.0 mm/hr 0.00 in0.0 mm
06:50 AM 63.2°F17.3°C 52.9°F11.6°C 69% Calm Calm -- 29.89 in1012.2 mb 0.00 in0.0 mm 0.00 in/hr0.0 mm/hr 0.00 in0.0 mm
06:45 AM 63.0°F17.2°C 52.7°F11.5°C 69% Calm Calm -- 29.89 in1012.2 mb 0.00 in0.0 mm 0.00 in/hr0.0 mm/hr 0.00 in0.0 mm
06:40 AM 62.8°F17.1°C 52.5°F11.4°C 69% 2.0 mph N3.2 kmh N -- 29.88 in1011.9 mb 0.00 in0.0 mm 0.00 in/hr0.0 mm/hr 0.00 in0.0 mm
06:35 AM 62.3°F16.8°C 52.4°F11.3°C 70% 4.0 mph N6.4 kmh N -- 29.88 in1011.9 mb 0.00 in0.0 mm 0.00 in/hr0.0 mm/hr 0.00 in0.0 mm
06:30 AM 62.0°F16.7°C 52.1°F11.2°C 70% Calm Calm -- 29.89 in1012.2 mb 0.00 in0.0 mm 0.00 in/hr0.0 mm/hr 0.00 in0.0 mm
06:25 AM 62.0°F16.7°C 52.5°F11.4°C 71% Calm Calm -- 29.89 in1012.2 mb 0.00 in0.0 mm 0.00 in/hr0.0 mm/hr 0.00 in0.0 mm
06:20 AM 61.8°F16.6°C 52.3°F11.3°C 71% Calm Calm -- 29.88 in1011.9 mb 0.00 in0.0 mm 0.00 in/hr0.0 mm/hr 0.00 in0.0 mm
06:15 AM 61.8°F16.6°C 52.3°F11.3°C 71% Calm Calm -- 29.88 in1011.9 mb 0.00 in0.0 mm 0.00 in/hr0.0 mm/hr 0.00 in0.0 mm
06:10 AM 61.8°F16.6°C 52.3°F11.3°C 71% 1.0 mph NW1.6 kmh NW -- 29.88 in1011.9 mb 0.00 in0.0 mm 0.00 in/hr0.0 mm/hr 0.00 in0.0 mm
06:05 AM 62.0°F16.7°C 52.1°F11.2°C 70% 2.0 mph NW3.2 kmh NW -- 29.88 in1011.9 mb 0.00 in0.0 mm 0.00 in/hr0.0 mm/hr 0.00 in0.0 mm
06:00 AM 62.1°F16.7°C 52.2°F11.2°C 70% 4.0 mph NW6.4 kmh NW -- 29.87 in1011.5 mb 0.00 in0.0 mm 0.00 in/hr0.0 mm/hr 0.00 in0.0 mm
05:55 AM 62.3°F16.8°C 52.4°F11.3°C 70% 2.0 mph W3.2 kmh W -- 29.87 in1011.5 mb 0.00 in0.0 mm 0.00 in/hr0.0 mm/hr 0.00 in0.0 mm
05:50 AM 62.3°F16.8°C 52.4°F11.3°C 70% 2.0 mph NW3.2 kmh NW -- 29.87 in1011.5 mb 0.00 in0.0 mm 0.00 in/hr0.0 mm/hr 0.00 in0.0 mm
05:45 AM 62.1°F16.7°C 52.2°F11.2°C 70% 2.0 mph WSW3.2 kmh WSW -- 29.87 in1011.5 mb 0.00 in0.0 mm 0.00 in/hr0.0 mm/hr 0.00 in0.0 mm
05:40 AM 62.1°F16.7°C 52.6°F11.4°C 71% 12.0 mph WSW19.3 kmh WSW -- 29.87 in1011.5 mb 0.00 in0.0 mm 0.00 in/hr0.0 mm/hr 0.00 in0.0 mm
05:35 AM 62.1°F16.7°C 52.6°F11.4°C 71% 1.0 mph SW1.6 kmh SW -- 29.87 in1011.5 mb 0.00 in0.0 mm 0.00 in/hr0.0 mm/hr 0.00 in0.0 mm
05:30 AM 62.1°F16.7°C 52.6°F11.4°C 71% 4.0 mph WSW6.4 kmh WSW -- 29.87 in1011.5 mb 0.00 in0.0 mm 0.00 in/hr0.0 mm/hr 0.00 in0.0 mm
05:25 AM 62.3°F16.8°C 52.8°F11.6°C 71% 8.0 mph SW12.9 kmh SW -- 29.86 in1011.2 mb 0.00 in0.0 mm 0.00 in/hr0.0 mm/hr 0.00 in0.0 mm
05:20 AM 62.3°F16.8°C 52.8°F11.6°C 71% 2.0 mph WSW3.2 kmh WSW -- 29.86 in1011.2 mb 0.00 in0.0 mm 0.00 in/hr0.0 mm/hr 0.00 in0.0 mm
05:15 AM 62.2°F16.8°C 53.1°F11.7°C 72% 5.0 mph W8.0 kmh W -- 29.86 in1011.2 mb 0.00 in0.0 mm 0.00 in/hr0.0 mm/hr 0.00 in0.0 mm
05:10 AM 62.0°F16.7°C 52.9°F11.6°C 72% 8.0 mph WSW12.9 kmh WSW -- 29.86 in1011.2 mb 0.00 in0.0 mm 0.00 in/hr0.0 mm/hr 0.00 in0.0 mm
05:05 AM 62.3°F16.8°C 53.2°F11.8°C 72% Calm Calm -- 29.86 in1011.2 mb 0.00 in0.0 mm 0.00 in/hr0.0 mm/hr 0.00 in0.0 mm
05:00 AM 63.0°F17.2°C 53.1°F11.7°C 70% 2.0 mph WSW3.2 kmh WSW -- 29.85 in1010.8 mb 0.00 in0.0 mm 0.00 in/hr0.0 mm/hr 0.00 in0.0 mm
04:55 AM 63.7°F17.6°C 53.0°F11.7°C 68% 9.0 mph SW14.5 kmh SW -- 29.86 in1011.2 mb 0.00 in0.0 mm 0.00 in/hr0.0 mm/hr 0.00 in0.0 mm
04:50 AM 63.9°F17.7°C 53.1°F11.7°C 68% Calm Calm -- 29.85 in1010.8 mb 0.00 in0.0 mm 0.00 in/hr0.0 mm/hr 0.00 in0.0 mm
04:45 AM 63.8°F17.7°C 53.1°F11.7°C 68% 3.0 mph W4.8 kmh W -- 29.85 in1010.8 mb 0.00 in0.0 mm 0.00 in/hr0.0 mm/hr 0.00 in0.0 mm
04:40 AM 63.6°F17.6°C 53.3°F11.8°C 69% 16.0 mph W25.7 kmh W -- 29.84 in1010.5 mb 0.00 in0.0 mm 0.00 in/hr0.0 mm/hr 0.00 in0.0 mm
04:35 AM 63.6°F17.6°C 53.3°F11.8°C 69% 8.0 mph NNW12.9 kmh NNW -- 29.85 in1010.8 mb 0.00 in0.0 mm 0.00 in/hr0.0 mm/hr 0.00 in0.0 mm
04:30 AM 63.8°F17.7°C 53.5°F11.9°C 69% Calm Calm -- 29.85 in1010.8 mb 0.00 in0.0 mm 0.00 in/hr0.0 mm/hr 0.00 in0.0 mm
04:25 AM 63.9°F17.7°C 53.5°F11.9°C 69% 5.0 mph WNW8.0 kmh WNW -- 29.84 in1010.5 mb 0.00 in0.0 mm 0.00 in/hr0.0 mm/hr 0.00 in0.0 mm
04:20 AM 64.0°F17.8°C 53.6°F12.0°C 69% 3.0 mph NNW4.8 kmh NNW -- 29.84 in1010.5 mb 0.00 in0.0 mm 0.00 in/hr0.0 mm/hr 0.00 in0.0 mm
04:15 AM 64.0°F17.8°C 54.0°F12.2°C 70% 4.0 mph NNW6.4 kmh NNW -- 29.84 in1010.5 mb 0.00 in0.0 mm 0.00 in/hr0.0 mm/hr 0.00 in0.0 mm
04:10 AM 64.0°F17.8°C 54.0°F12.2°C 70% Calm Calm -- 29.84 in1010.5 mb 0.00 in0.0 mm 0.00 in/hr0.0 mm/hr 0.00 in0.0 mm
04:05 AM 63.9°F17.7°C 53.9°F12.2°C 70% Calm Calm -- 29.84 in1010.5 mb 0.00 in0.0 mm 0.00 in/hr0.0 mm/hr 0.00 in0.0 mm
04:00 AM 63.9°F17.7°C 54.3°F12.4°C 71% 8.0 mph NW12.9 kmh NW -- 29.83 in1010.2 mb 0.00 in0.0 mm 0.00 in/hr0.0 mm/hr 0.00 in0.0 mm
03:55 AM 63.8°F17.7°C 54.2°F12.3°C 71% 6.0 mph NW9.7 kmh NW -- 29.83 in1010.2 mb 0.00 in0.0 mm 0.00 in/hr0.0 mm/hr 0.00 in0.0 mm
03:50 AM 63.8°F17.7°C 54.2°F12.3°C 71% 2.0 mph NW3.2 kmh NW -- 29.83 in1010.2 mb 0.00 in0.0 mm 0.00 in/hr0.0 mm/hr 0.00 in0.0 mm
03:45 AM 63.8°F17.7°C 54.2°F12.3°C 71% 7.0 mph N11.3 kmh N -- 29.83 in1010.2 mb 0.00 in0.0 mm 0.00 in/hr0.0 mm/hr 0.00 in0.0 mm
03:40 AM 64.1°F17.8°C 54.1°F12.3°C 70% Calm Calm -- 29.83 in1010.2 mb 0.00 in0.0 mm 0.00 in/hr0.0 mm/hr 0.00 in0.0 mm
03:35 AM 64.4°F18.0°C 54.0°F12.2°C 69% 5.0 mph NNW8.0 kmh NNW -- 29.83 in1010.2 mb 0.00 in0.0 mm 0.00 in/hr0.0 mm/hr 0.00 in0.0 mm
03:30 AM 64.9°F18.3°C 54.1°F12.3°C 68% 1.0 mph WNW1.6 kmh WNW -- 29.83 in1010.2 mb 0.00 in0.0 mm 0.00 in/hr0.0 mm/hr 0.00 in0.0 mm
03:25 AM 65.7°F18.7°C 54.0°F12.2°C 66% Calm Calm -- 29.83 in1010.2 mb 0.00 in0.0 mm 0.00 in/hr0.0 mm/hr 0.00 in0.0 mm
03:20 AM 66.1°F18.9°C 54.0°F12.2°C 65% Calm Calm -- 29.83 in1010.2 mb 0.00 in0.0 mm 0.00 in/hr0.0 mm/hr 0.00 in0.0 mm
03:15 AM 66.1°F18.9°C 54.0°F12.2°C 65% 2.0 mph NE3.2 kmh NE -- 29.83 in1010.2 mb 0.00 in0.0 mm 0.00 in/hr0.0 mm/hr 0.00 in0.0 mm
03:10 AM 66.1°F18.9°C 54.0°F12.2°C 65% Calm Calm -- 29.83 in1010.2 mb 0.00 in0.0 mm 0.00 in/hr0.0 mm/hr 0.00 in0.0 mm
03:05 AM 66.1°F18.9°C 54.0°F12.2°C 65% 2.0 mph NE3.2 kmh NE -- 29.83 in1010.2 mb 0.00 in0.0 mm 0.00 in/hr0.0 mm/hr 0.00 in0.0 mm
03:00 AM 66.3°F19.1°C 53.8°F12.1°C 64% Calm Calm -- 29.84 in1010.5 mb 0.00 in0.0 mm 0.00 in/hr0.0 mm/hr 0.00 in0.0 mm
02:55 AM 66.6°F19.2°C 54.1°F12.3°C 64% Calm Calm -- 29.83 in1010.2 mb 0.00 in0.0 mm 0.00 in/hr0.0 mm/hr 0.00 in0.0 mm
02:50 AM 67.0°F19.4°C 54.0°F12.2°C 63% Calm Calm -- 29.84 in1010.5 mb 0.00 in0.0 mm 0.00 in/hr0.0 mm/hr 0.00 in0.0 mm
02:45 AM 67.2°F19.6°C 53.8°F12.1°C 62% Calm Calm -- 29.83 in1010.2 mb 0.00 in0.0 mm 0.00 in/hr0.0 mm/hr 0.00 in0.0 mm
02:40 AM 67.5°F19.7°C 54.0°F12.2°C 62% Calm Calm -- 29.83 in1010.2 mb 0.00 in0.0 mm 0.00 in/hr0.0 mm/hr 0.00 in0.0 mm
02:35 AM 67.6°F19.8°C 53.7°F12.1°C 61% Calm Calm -- 29.83 in1010.2 mb 0.00 in0.0 mm 0.00 in/hr0.0 mm/hr 0.00 in0.0 mm
02:30 AM 67.7°F19.8°C 53.8°F12.1°C 61% Calm Calm -- 29.83 in1010.2 mb 0.00 in0.0 mm 0.00 in/hr0.0 mm/hr 0.00 in0.0 mm
02:25 AM 67.8°F19.9°C 53.9°F12.2°C 61% Calm Calm -- 29.83 in1010.2 mb 0.00 in0.0 mm 0.00 in/hr0.0 mm/hr 0.00 in0.0 mm
02:20 AM 68.0°F20.0°C 54.1°F12.3°C 61% Calm Calm -- 29.82 in1009.8 mb 0.00 in0.0 mm 0.00 in/hr0.0 mm/hr 0.00 in0.0 mm
02:15 AM 68.5°F20.3°C 53.6°F12.0°C 59% Calm Calm -- 29.82 in1009.8 mb 0.00 in0.0 mm 0.00 in/hr0.0 mm/hr 0.00 in0.0 mm
02:10 AM 68.6°F20.3°C 53.7°F12.1°C 59% Calm Calm -- 29.82 in1009.8 mb 0.00 in0.0 mm 0.00 in/hr0.0 mm/hr 0.00 in0.0 mm
02:05 AM 68.8°F20.4°C 53.9°F12.2°C 59% Calm Calm -- 29.82 in1009.8 mb 0.00 in0.0 mm 0.00 in/hr0.0 mm/hr 0.00 in0.0 mm
02:00 AM 68.9°F20.5°C 53.5°F11.9°C 58% 4.0 mph NE6.4 kmh NE -- 29.82 in1009.8 mb 0.00 in0.0 mm 0.00 in/hr0.0 mm/hr 0.00 in0.0 mm
01:55 AM 69.0°F20.6°C 53.6°F12.0°C 58% Calm Calm -- 29.82 in1009.8 mb 0.00 in0.0 mm 0.00 in/hr0.0 mm/hr 0.00 in0.0 mm
01:50 AM 69.1°F20.6°C 53.2°F11.8°C 57% Calm Calm -- 29.82 in1009.8 mb 0.00 in0.0 mm 0.00 in/hr0.0 mm/hr 0.00 in0.0 mm
01:45 AM 69.3°F20.7°C 53.0°F11.7°C 56% Calm Calm -- 29.82 in1009.8 mb 0.00 in0.0 mm 0.00 in/hr0.0 mm/hr 0.00 in0.0 mm
01:40 AM 69.6°F20.9°C 53.2°F11.8°C 56% 4.0 mph NE6.4 kmh NE -- 29.82 in1009.8 mb 0.00 in0.0 mm 0.00 in/hr0.0 mm/hr 0.00 in0.0 mm
01:35 AM 70.0°F21.1°C 54.1°F12.3°C 57% Calm Calm -- 29.82 in1009.8 mb 0.00 in0.0 mm 0.00 in/hr0.0 mm/hr 0.00 in0.0 mm
01:30 AM 70.2°F21.2°C 53.3°F11.8°C 55% Calm Calm -- 29.82 in1009.8 mb 0.00 in0.0 mm 0.00 in/hr0.0 mm/hr 0.00 in0.0 mm
01:25 AM 70.3°F21.3°C 52.9°F11.6°C 54% Calm Calm -- 29.83 in1010.2 mb 0.00 in0.0 mm 0.00 in/hr0.0 mm/hr 0.00 in0.0 mm
01:20 AM 70.5°F21.4°C 52.6°F11.4°C 53% 2.0 mph NE3.2 kmh NE -- 29.83 in1010.2 mb 0.00 in0.0 mm 0.00 in/hr0.0 mm/hr 0.00 in0.0 mm
01:15 AM 70.6°F21.4°C 52.1°F11.2°C 52% 5.0 mph NE8.0 kmh NE -- 29.83 in1010.2 mb 0.00 in0.0 mm 0.00 in/hr0.0 mm/hr 0.00 in0.0 mm
01:10 AM 70.8°F21.6°C 52.3°F11.3°C 52% Calm Calm -- 29.82 in1009.8 mb 0.00 in0.0 mm 0.00 in/hr0.0 mm/hr 0.00 in0.0 mm
01:05 AM 70.8°F21.6°C 51.8°F11.0°C 51% 4.0 mph NE6.4 kmh NE -- 29.82 in1009.8 mb 0.00 in0.0 mm 0.00 in/hr0.0 mm/hr 0.00 in0.0 mm
01:00 AM 71.1°F21.7°C 52.6°F11.4°C 52% 7.0 mph WSW11.3 kmh WSW -- 29.81 in1009.5 mb 0.00 in0.0 mm 0.00 in/hr0.0 mm/hr 0.00 in0.0 mm
12:55 AM 71.4°F21.9°C 52.4°F11.3°C 51% Calm Calm -- 29.81 in1009.5 mb 0.00 in0.0 mm 0.00 in/hr0.0 mm/hr 0.00 in0.0 mm
12:50 AM 71.7°F22.1°C 52.1°F11.2°C 50% 8.0 mph W12.9 kmh W -- 29.80 in1009.1 mb 0.00 in0.0 mm 0.00 in/hr0.0 mm/hr 0.00 in0.0 mm
12:45 AM 71.9°F22.2°C 51.7°F10.9°C 49% 6.0 mph WSW9.7 kmh WSW -- 29.80 in1009.1 mb 0.00 in0.0 mm 0.00 in/hr0.0 mm/hr 0.00 in0.0 mm
12:40 AM 71.8°F22.1°C 52.2°F11.2°C 50% 4.0 mph WSW6.4 kmh WSW -- 29.81 in1009.5 mb 0.00 in0.0 mm 0.00 in/hr0.0 mm/hr 0.00 in0.0 mm
12:35 AM 71.6°F22.0°C 52.5°F11.4°C 51% 10.0 mph WSW16.1 kmh WSW -- 29.81 in1009.5 mb 0.00 in0.0 mm 0.00 in/hr0.0 mm/hr 0.00 in0.0 mm
12:30 AM 71.6°F22.0°C 52.5°F11.4°C 51% Calm Calm -- 29.81 in1009.5 mb 0.00 in0.0 mm 0.00 in/hr0.0 mm/hr 0.00 in0.0 mm
12:25 AM 71.4°F21.9°C 52.4°F11.3°C 51% Calm Calm -- 29.81 in1009.5 mb 0.00 in0.0 mm 0.00 in/hr0.0 mm/hr 0.00 in0.0 mm
12:20 AM 71.3°F21.8°C 52.8°F11.6°C 52% Calm Calm -- 29.81 in1009.5 mb 0.00 in0.0 mm 0.00 in/hr0.0 mm/hr 0.00 in0.0 mm
12:15 AM 71.5°F21.9°C 53.0°F11.7°C 52% 2.0 mph W3.2 kmh W -- 29.81 in1009.5 mb 0.00 in0.0 mm 0.00 in/hr0.0 mm/hr 0.00 in0.0 mm
12:10 AM 71.8°F22.1°C 53.3°F11.8°C 52% Calm Calm -- 29.81 in1009.5 mb 0.00 in0.0 mm 0.00 in/hr0.0 mm/hr 0.00 in0.0 mm
12:05 AM 71.9°F22.2°C 52.8°F11.6°C 51% Calm Calm -- 29.81 in1009.5 mb 0.00 in0.0 mm 0.00 in/hr0.0 mm/hr 0.00 in0.0 mm
12:00 AM 71.9°F22.2°C 52.8°F11.6°C 51% Calm Calm -- 29.81 in1009.5 mb 0.00 in0.0 mm 0.00 in/hr0.0 mm/hr 0.00 in0.0 mm